Time;durP1;ratioP1;P1;durP2;ratioP2;P2;SDS_P1;SDS_P2;PMS_P1;PMS_P2;Temp;Humidity;BMP_temperature;BMP_pressure;BME280_temperature;BME280_humidity;BME280_pressure;Samples;Min_cycle;Max_cycle;Signal;HPM_P1;HPM_P2
2022/02/12 00:02:12;;;;;;;15.10;3.45;;;;;;;;;;5079821;28;20080;-63
2022/02/12 00:04:38;;;;;;;17.35;5.13;;;;;;;;;;5080358;28;20173;-63
2022/02/12 00:07:05;;;;;;;13.27;3.55;;;;;;;;;;5077929;28;20611;-63
2022/02/12 00:09:31;;;;;;;18.48;5.53;;;;;;;;;;5082381;28;20076;-63
2022/02/12 00:11:57;;;;;;;11.60;4.18;;;;;;;;;;5081054;28;20056;-63
2022/02/12 00:14:24;;;;;;;32.78;6.35;;;;;;;;;;5080513;28;20073;-63
2022/02/12 00:16:50;;;;;;;19.10;4.50;;;;;;;;;;5087739;28;20041;-63
2022/02/12 00:19:16;;;;;;;19.60;4.60;;;;;;;;;;5084955;28;20040;-63
2022/02/12 00:21:42;;;;;;;17.20;4.80;;;;;;;;;;5085036;28;20060;-63
2022/02/12 00:24:08;;;;;;;24.58;5.70;;;;;;;;;;5084541;28;20081;-63
2022/02/12 00:26:34;;;;;;;18.35;3.97;;;;;;;;;;5094216;28;20040;-63
2022/02/12 00:29:00;;;;;;;10.98;3.42;;;;;;;;;;5079141;28;20068;-63
2022/02/12 00:31:27;;;;;;;21.73;4.22;;;;;;;;;;5086408;28;20067;-62
2022/02/12 00:33:53;;;;;;;16.63;5.05;;;;;;;;;;5074916;28;20040;-62
2022/02/12 00:36:19;;;;;;;24.20;4.03;;;;;;;;;;5094561;28;20120;-62
2022/02/12 00:38:45;;;;;;;17.00;4.03;;;;;;;;;;5093639;28;20078;-62
2022/02/12 00:41:11;;;;;;;14.50;4.00;;;;;;;;;;5096667;28;20075;-62
2022/02/12 00:43:37;;;;;;;22.98;4.72;;;;;;;;;;5094911;28;20045;-63
2022/02/12 00:46:04;;;;;;;21.00;4.40;;;;;;;;;;5085922;28;20048;-62
2022/02/12 00:48:30;;;;;;;20.55;5.13;;;;;;;;;;5118541;27;20051;-62
2022/02/12 00:51:00;;;;;;;15.55;3.95;;;;;;;;;;5086064;28;20104;-62
2022/02/12 00:53:29;;;;;;;15.65;3.88;;;;;;;;;;5082411;28;20071;-62
2022/02/12 00:55:56;;;;;;;21.13;3.58;;;;;;;;;;5066815;28;20055;-62
2022/02/12 00:58:22;;;;;;;19.88;4.25;;;;;;;;;;5088287;28;20040;-62
2022/02/12 01:00:48;;;;;;;16.65;3.40;;;;;;;;;;5086633;28;20045;-62
2022/02/12 01:03:14;;;;;;;16.48;3.65;;;;;;;;;;5086743;28;20059;-62
2022/02/12 01:05:40;;;;;;;17.83;4.28;;;;;;;;;;5085272;28;20053;-61
2022/02/12 01:08:07;;;;;;;19.52;4.13;;;;;;;;;;5086376;28;20032;-62
2022/02/12 01:10:34;;;;;;;26.25;4.03;;;;;;;;;;5106922;28;20085;-62
2022/02/12 01:13:01;;;;;;;17.80;4.90;;;;;;;;;;5106055;28;20567;-62
2022/02/12 01:15:27;;;;;;;26.30;4.00;;;;;;;;;;5106077;28;20044;-62
2022/02/12 01:17:53;;;;;;;16.77;4.47;;;;;;;;;;5106753;28;20509;-62
2022/02/12 01:20:19;;;;;;;15.27;4.38;;;;;;;;;;5087394;28;20036;-62
2022/02/12 01:22:47;;;;;;;14.63;3.50;;;;;;;;;;5084370;28;20052;-62
2022/02/12 01:25:14;;;;;;;20.15;4.72;;;;;;;;;;5086737;28;20474;-62
2022/02/12 01:27:40;;;;;;;24.73;3.97;;;;;;;;;;5086782;28;20166;-62
2022/02/12 01:30:07;;;;;;;16.08;3.67;;;;;;;;;;5102479;28;20036;-61
2022/02/12 01:32:33;;;;;;;18.98;4.65;;;;;;;;;;5105447;28;20126;-61
2022/02/12 01:34:59;;;;;;;23.13;3.85;;;;;;;;;;5106319;28;20531;-62
2022/02/12 01:37:25;;;;;;;22.48;4.03;;;;;;;;;;5105979;28;20048;-62
2022/02/12 01:39:52;;;;;;;15.13;3.60;;;;;;;;;;5092034;28;20052;-62
2022/02/12 01:42:18;;;;;;;13.82;2.78;;;;;;;;;;5085973;28;20055;-62
2022/02/12 01:44:45;;;;;;;22.85;4.05;;;;;;;;;;5084713;28;20196;-61
2022/02/12 01:47:11;;;;;;;17.48;3.28;;;;;;;;;;5084832;28;20055;-62
2022/02/12 01:49:39;;;;;;;12.20;2.80;;;;;;;;;;5097563;28;20051;-62
2022/02/12 01:52:05;;;;;;;;;;;;;;;;;;5104680;28;20111;-61
2022/02/12 01:54:31;;;;;;;9.73;2.90;;;;;;;;;;5106375;28;19927;-62
2022/02/12 01:57:02;;;;;;;17.80;4.47;;;;;;;;;;5105133;28;20130;-61
2022/02/12 01:59:28;;;;;;;13.98;3.38;;;;;;;;;;5085047;28;20127;-61
2022/02/12 02:01:54;;;;;;;18.67;3.40;;;;;;;;;;5104680;28;20058;-61
2022/02/12 02:04:21;;;;;;;21.60;4.15;;;;;;;;;;5104753;28;20081;-62
2022/02/12 02:06:47;;;;;;;13.75;3.25;;;;;;;;;;5105163;28;20051;-62
2022/02/12 02:09:18;;;;;;;26.75;4.07;;;;;;;;;;5096345;28;20056;-62
2022/02/12 02:11:44;;;;;;;15.35;3.10;;;;;;;;;;5085900;28;20109;-62
2022/02/12 02:14:11;;;;;;;20.33;3.88;;;;;;;;;;5085484;28;20040;-62
2022/02/12 02:16:37;;;;;;;15.02;3.20;;;;;;;;;;5084171;28;20579;-61
2022/02/12 02:19:04;;;;;;;27.35;5.07;;;;;;;;;;5100909;28;20101;-61
2022/02/12 02:21:30;;;;;;;17.45;3.30;;;;;;;;;;5084290;28;20135;-61
2022/02/12 02:23:56;;;;;;;18.58;3.28;;;;;;;;;;5085305;28;20041;-61
2022/02/12 02:26:22;;;;;;;15.55;3.55;;;;;;;;;;5084494;28;20051;-62
2022/02/12 02:28:48;;;;;;;26.55;3.97;;;;;;;;;;5102726;28;20064;-62
2022/02/12 02:31:15;;;;;;;9.05;3.53;;;;;;;;;;5104170;28;20138;-62
2022/02/12 02:33:41;;;;;;;23.67;3.42;;;;;;;;;;5103681;28;20096;-62
2022/02/12 02:36:07;;;;;;;18.63;3.65;;;;;;;;;;5096074;28;20050;-62
2022/02/12 02:38:33;;;;;;;21.00;3.60;;;;;;;;;;5085381;28;20062;-62
2022/02/12 02:41:00;;;;;;;17.88;4.03;;;;;;;;;;5083263;28;20060;-63
2022/02/12 02:43:27;;;;;;;17.15;4.13;;;;;;;;;;5084993;28;20052;-62
2022/02/12 02:45:53;;;;;;;18.83;5.18;;;;;;;;;;5089439;28;20051;-62
2022/02/12 02:48:20;;;;;;;20.73;3.50;;;;;;;;;;5085971;28;20190;-62
2022/02/12 02:56:17;;;;;;;18.38;4.10;;;;;;;;;;5092750;28;20135;-62
2022/02/12 02:58:44;;;;;;;25.85;4.40;;;;;;;;;;5105046;28;20089;-61
2022/02/12 03:01:15;;;;;;;18.40;4.65;;;;;;;;;;5086561;28;20048;-61
2022/02/12 03:03:42;;;;;;;11.40;3.20;;;;;;;;;;5105179;28;20051;-61
2022/02/12 03:06:09;;;;;;;22.67;4.55;;;;;;;;;;5096858;28;20047;-61
2022/02/12 03:08:36;;;;;;;17.65;4.20;;;;;;;;;;5084603;28;20115;-61
2022/02/12 03:11:02;;;;;;;17.05;3.58;;;;;;;;;;5084421;28;20136;-62
2022/02/12 03:13:28;;;;;;;16.42;4.20;;;;;;;;;;5096439;28;20039;-62
2022/02/12 03:15:55;;;;;;;18.20;4.20;;;;;;;;;;5104535;28;20044;-62
2022/02/12 03:18:21;;;;;;;22.15;4.03;;;;;;;;;;5103438;28;20047;-62
2022/02/12 03:20:47;;;;;;;14.43;4.05;;;;;;;;;;5103671;28;20562;-62
2022/02/12 03:23:13;;;;;;;15.40;3.75;;;;;;;;;;5094699;28;20039;-61
2022/02/12 03:25:39;;;;;;;15.55;4.15;;;;;;;;;;5084532;28;20103;-61
2022/02/12 03:28:06;;;;;;;17.38;3.75;;;;;;;;;;5082868;28;20056;-61
2022/02/12 03:30:36;;;;;;;20.07;4.40;;;;;;;;;;5083049;28;20048;-61
2022/02/12 03:33:03;;;;;;;21.27;4.68;;;;;;;;;;5090922;28;20139;-62
2022/02/12 03:35:29;;;;;;;17.25;4.50;;;;;;;;;;5104198;28;20070;-62
2022/02/12 03:38:07;;;;;;;19.42;4.47;;;;;;;;;;5090327;28;20075;-62
2022/02/12 03:40:35;;;;;;;13.82;4.93;;;;;;;;;;5069846;28;20049;-63
2022/02/12 03:43:01;;;;;;;13.13;3.50;;;;;;;;;;5079533;28;20063;-61
2022/02/12 03:45:27;;;;;;;15.68;3.53;;;;;;;;;;5103247;28;20562;-62
2022/02/12 03:47:53;;;;;;;14.02;3.45;;;;;;;;;;5104324;28;20048;-61
2022/02/12 03:50:19;;;;;;;23.20;3.63;;;;;;;;;;5104006;28;20048;-61
2022/02/12 03:52:45;;;;;;;9.63;2.95;;;;;;;;;;5097923;28;20075;-61
2022/02/12 03:55:11;;;;;;;21.48;3.78;;;;;;;;;;5084316;28;20102;-61
2022/02/12 03:57:37;;;;;;;16.25;3.13;;;;;;;;;;5083887;28;20109;-61
2022/02/12 04:00:11;;;;;;;14.48;2.90;;;;;;;;;;5084089;28;20053;-61
2022/02/12 04:02:38;;;;;;;12.40;3.35;;;;;;;;;;5087625;28;20048;-61
2022/02/12 04:05:04;;;;;;;10.73;3.63;;;;;;;;;;5102799;28;20050;-62
2022/02/12 04:07:30;;;;;;;7.45;2.80;;;;;;;;;;5103805;28;20059;-62
2022/02/12 04:09:56;;;;;;;16.63;3.63;;;;;;;;;;5104510;28;20086;-61
2022/02/12 04:12:22;;;;;;;20.95;3.90;;;;;;;;;;5102035;28;20133;-62
2022/02/12 04:14:49;;;;;;;12.25;2.70;;;;;;;;;;5084008;28;20056;-62
2022/02/12 04:17:15;;;;;;;13.25;3.35;;;;;;;;;;5083844;28;20056;-62
2022/02/12 04:19:41;;;;;;;14.02;2.85;;;;;;;;;;5083776;28;20508;-62
2022/02/12 04:22:07;;;;;;;18.70;3.45;;;;;;;;;;5081321;28;20052;-63
2022/02/12 04:24:33;;;;;;;17.05;3.67;;;;;;;;;;5097356;28;20041;-62
2022/02/12 04:26:59;;;;;;;12.05;2.70;;;;;;;;;;5083550;28;20045;-62
2022/02/12 04:29:26;;;;;;;19.65;3.92;;;;;;;;;;5099565;28;20056;-62
2022/02/12 04:31:52;;;;;;;18.75;3.63;;;;;;;;;;5083466;28;20090;-62
2022/02/12 04:34:19;;;;;;;14.57;3.65;;;;;;;;;;5086039;28;20083;-62
2022/02/12 04:36:45;;;;;;;11.38;3.42;;;;;;;;;;5103254;28;20044;-62
2022/02/12 04:39:12;;;;;;;13.35;3.40;;;;;;;;;;5102387;28;20052;-62
2022/02/12 04:41:38;;;;;;;17.98;4.25;;;;;;;;;;5103469;28;20404;-62
2022/02/12 04:44:04;;;;;;;8.95;4.93;;;;;;;;;;5103295;28;20068;-62
2022/02/12 04:46:31;;;;;;;19.08;6.40;;;;;;;;;;5082088;28;20059;-62
2022/02/12 04:48:57;;;;;;;12.20;3.92;;;;;;;;;;5083491;28;20048;-62
2022/02/12 04:51:23;;;;;;;18.67;3.83;;;;;;;;;;5084845;28;20045;-62
2022/02/12 04:53:51;;;;;;;24.67;5.38;;;;;;;;;;5085636;28;20079;-62
2022/02/12 04:56:17;;;;;;;17.52;3.78;;;;;;;;;;5105433;28;20519;-62
2022/02/12 04:58:43;;;;;;;19.77;4.18;;;;;;;;;;5106004;28;20048;-62
2022/02/12 05:01:19;;;;;;;18.00;4.18;;;;;;;;;;5105803;28;20152;-62
2022/02/12 05:03:47;;;;;;;22.42;5.03;;;;;;;;;;5106173;28;20052;-62
2022/02/12 05:06:13;;;;;;;22.55;3.67;;;;;;;;;;5087486;28;20056;-62
2022/02/12 05:08:40;;;;;;;16.67;3.58;;;;;;;;;;5085606;28;20053;-62
2022/02/12 05:11:06;;;;;;;9.70;3.45;;;;;;;;;;5086696;28;20048;-62
2022/02/12 05:13:32;;;;;;;18.42;4.00;;;;;;;;;;5086893;28;20037;-62
2022/02/12 05:15:58;;;;;;;12.15;4.13;;;;;;;;;;5101967;28;20127;-62
2022/02/12 05:18:24;;;;;;;11.07;3.85;;;;;;;;;;5091898;28;20062;-62
2022/02/12 05:20:50;;;;;;;12.18;4.05;;;;;;;;;;5085879;28;20074;-62
2022/02/12 05:23:17;;;;;;;17.92;4.32;;;;;;;;;;5086494;28;20398;-62
2022/02/12 05:25:43;;;;;;;13.77;5.18;;;;;;;;;;5097863;28;20044;-62
2022/02/12 05:28:09;;;;;;;18.65;4.22;;;;;;;;;;5105500;28;20044;-62
2022/02/12 05:30:35;;;;;;;17.42;3.90;;;;;;;;;;5105527;28;20083;-62
2022/02/12 05:33:01;;;;;;;23.73;5.70;;;;;;;;;;5102699;28;20424;-62
2022/02/12 05:35:27;;;;;;;17.17;4.60;;;;;;;;;;5085188;28;20048;-62
2022/02/12 05:37:53;;;;;;;20.73;4.35;;;;;;;;;;5085844;28;20053;-62
2022/02/12 05:40:19;;;;;;;23.00;5.07;;;;;;;;;;5101848;28;20492;-62
2022/02/12 05:42:45;;;;;;;12.55;3.92;;;;;;;;;;5087016;28;20070;-62
2022/02/12 05:45:11;;;;;;;23.42;5.03;;;;;;;;;;5104987;28;20111;-62
2022/02/12 05:47:38;;;;;;;11.20;4.10;;;;;;;;;;5106593;28;20044;-62
2022/02/12 05:50:04;;;;;;;12.18;4.20;;;;;;;;;;5104966;28;20078;-62
2022/02/12 05:52:30;;;;;;;13.77;4.07;;;;;;;;;;5105511;28;20511;-62
2022/02/12 05:54:57;;;;;;;15.35;4.20;;;;;;;;;;5086474;28;20044;-62
2022/02/12 05:57:23;;;;;;;15.88;3.58;;;;;;;;;;5085940;28;20075;-62
2022/02/12 05:59:49;;;;;;;24.08;5.55;;;;;;;;;;5085963;28;20055;-62
2022/02/12 06:02:15;;;;;;;17.45;4.80;;;;;;;;;;5085831;28;20055;-62
2022/02/12 06:04:41;;;;;;;14.32;4.60;;;;;;;;;;5102746;28;20047;-63
2022/02/12 06:07:07;;;;;;;19.30;5.18;;;;;;;;;;5102434;28;20048;-62
2022/02/12 06:09:33;;;;;;;20.63;5.10;;;;;;;;;;5085828;28;20465;-62
2022/02/12 06:11:59;;;;;;;14.98;5.53;;;;;;;;;;5085558;28;20120;-62
2022/02/12 06:14:25;;;;;;;14.15;4.03;;;;;;;;;;5099281;28;20047;-62
2022/02/12 06:16:56;;;;;;;14.65;4.20;;;;;;;;;;5106229;28;20036;-62
2022/02/12 06:19:22;;;;;;;14.18;4.35;;;;;;;;;;5104582;28;20048;-62
2022/02/12 06:21:48;;;;;;;13.73;4.88;;;;;;;;;;5103434;28;20054;-62
2022/02/12 06:24:15;;;;;;;23.67;6.50;;;;;;;;;;5093353;28;20108;-62
2022/02/12 06:26:46;;;;;;;18.40;5.15;;;;;;;;;;5085407;28;20044;-62
2022/02/12 06:29:13;;;;;;;15.50;5.30;;;;;;;;;;5085354;28;20115;-62
2022/02/12 06:31:40;;;;;;;17.63;4.78;;;;;;;;;;5085465;28;20048;-62
2022/02/12 06:34:06;;;;;;;20.40;5.53;;;;;;;;;;5094243;28;20043;-62
2022/02/12 06:36:32;;;;;;;10.10;3.95;;;;;;;;;;5104238;28;20048;-62
2022/02/12 06:38:58;;;;;;;16.25;4.70;;;;;;;;;;5105453;28;20048;-62
2022/02/12 06:41:24;;;;;;;19.55;4.85;;;;;;;;;;5105213;28;20056;-62
2022/02/12 06:43:51;;;;;;;11.57;5.22;;;;;;;;;;5098112;28;20050;-62
2022/02/12 06:46:17;;;;;;;19.38;5.53;;;;;;;;;;5085362;28;20102;-61
2022/02/12 06:48:45;;;;;;;28.60;4.95;;;;;;;;;;5083848;28;20052;-61
2022/02/12 06:51:14;;;;;;;15.43;5.85;;;;;;;;;;5082623;28;20087;-62
2022/02/12 06:53:40;;;;;;;23.10;5.18;;;;;;;;;;5088178;28;20051;-61
2022/02/12 06:56:06;;;;;;;16.90;5.20;;;;;;;;;;5102901;28;20523;-62
2022/02/12 06:58:33;;;;;;;13.68;5.70;;;;;;;;;;5083701;28;20048;-62
2022/02/12 07:00:59;;;;;;;13.05;4.85;;;;;;;;;;5083351;28;20063;-62
2022/02/12 07:03:25;;;;;;;14.32;4.97;;;;;;;;;;5085380;28;20108;-62
2022/02/12 07:05:51;;;;;;;20.95;5.32;;;;;;;;;;5102829;28;20048;-62
2022/02/12 07:08:17;;;;;;;19.20;5.28;;;;;;;;;;5104954;28;20487;-62
2022/02/12 07:10:43;;;;;;;17.90;5.75;;;;;;;;;;5105036;28;20549;-62
2022/02/12 07:13:11;;;;;;;17.45;5.93;;;;;;;;;;5104198;28;20044;-62
2022/02/12 07:15:38;;;;;;;19.60;6.15;;;;;;;;;;5084434;28;20048;-63
2022/02/12 07:18:04;;;;;;;11.68;4.72;;;;;;;;;;5084480;28;20044;-62
2022/02/12 07:20:30;;;;;;;14.23;5.32;;;;;;;;;;5084020;28;20048;-62
2022/02/12 07:22:56;;;;;;;20.88;5.90;;;;;;;;;;5083909;28;20048;-61
2022/02/12 07:25:23;;;;;;;21.55;5.47;;;;;;;;;;5102452;28;20058;-60
2022/02/12 07:27:54;;;;;;;13.13;5.25;;;;;;;;;;5104413;28;20047;-62
2022/02/12 07:30:20;;;;;;;20.00;5.75;;;;;;;;;;5104533;28;20044;-61
2022/02/12 07:32:46;;;;;;;18.30;5.65;;;;;;;;;;5104406;28;20052;-62
2022/02/12 07:35:13;;;;;;;18.05;5.47;;;;;;;;;;5086940;28;20044;-61
2022/02/12 07:37:41;;;;;;;17.17;5.22;;;;;;;;;;5084409;28;20049;-63
2022/02/12 07:40:08;;;;;;;13.48;5.53;;;;;;;;;;5068660;28;20047;-61
2022/02/12 07:42:35;;;;;;;17.58;6.07;;;;;;;;;;5091774;28;20063;-61
2022/02/12 07:45:01;;;;;;;12.95;6.13;;;;;;;;;;5101862;28;20040;-61
2022/02/12 07:47:27;;;;;;;23.73;7.50;;;;;;;;;;5084946;28;20044;-61
2022/02/12 07:49:53;;;;;;;24.25;7.05;;;;;;;;;;5084267;28;20511;-61
2022/02/12 07:52:19;;;;;;;19.85;6.60;;;;;;;;;;5098471;28;20044;-61
2022/02/12 07:54:45;;;;;;;16.55;6.82;;;;;;;;;;5101791;28;20097;-60
2022/02/12 07:57:11;;;;;;;13.68;7.20;;;;;;;;;;5052858;28;20041;-61
2022/02/12 07:59:37;;;;;;;19.63;7.30;;;;;;;;;;5062612;28;20059;-61
2022/02/12 08:02:04;;;;;;;21.23;6.97;;;;;;;;;;5081607;28;20507;-61
2022/02/12 08:04:30;;;;;;;30.33;6.70;;;;;;;;;;5101839;28;20061;-61
2022/02/12 08:09:40;;;;;;;20.67;6.68;;;;;;;;;;5077093;28;20098;-62
2022/02/12 08:12:13;;;;;;;20.42;7.20;;;;;;;;;;5097901;28;20106;-61
2022/02/12 08:14:40;;;;;;;17.73;5.93;;;;;;;;;;5082214;28;20516;-62
2022/02/12 08:17:06;;;;;;;21.70;7.37;;;;;;;;;;5083960;28;20040;-61
2022/02/12 08:19:32;;;;;;;24.40;6.85;;;;;;;;;;5093199;28;20298;-62
2022/02/12 08:21:58;;;;;;;20.77;7.40;;;;;;;;;;5082084;28;20052;-61
2022/02/12 08:24:24;;;;;;;21.10;6.78;;;;;;;;;;5094171;28;20387;-61
2022/02/12 08:26:51;;;;;;;18.13;7.25;;;;;;;;;;5086758;28;20036;-62
2022/02/12 08:29:17;;;;;;;20.65;7.20;;;;;;;;;;5103169;28;20412;-62
2022/02/12 08:31:43;;;;;;;17.02;7.18;;;;;;;;;;5087209;28;20122;-61
2022/02/12 08:34:09;;;;;;;25.33;6.13;;;;;;;;;;5086119;28;20072;-61
2022/02/12 08:36:35;;;;;;;21.60;7.88;;;;;;;;;;5083958;28;20052;-61
2022/02/12 08:39:01;;;;;;;16.23;6.75;;;;;;;;;;5087571;28;20127;-61
2022/02/12 08:41:27;;;;;;;18.02;6.80;;;;;;;;;;5075092;28;20061;-61
2022/02/12 08:43:53;;;;;;;15.77;7.03;;;;;;;;;;5084823;28;20055;-61
2022/02/12 08:46:20;;;;;;;22.70;6.53;;;;;;;;;;5095478;28;20048;-61
2022/02/12 08:48:46;;;;;;;18.02;6.35;;;;;;;;;;5090586;28;20118;-61
2022/02/12 08:51:12;;;;;;;12.35;5.97;;;;;;;;;;5086339;28;20040;-61
2022/02/12 08:53:38;;;;;;;26.00;6.72;;;;;;;;;;5103230;28;20052;-61
2022/02/12 08:56:04;;;;;;;16.33;6.57;;;;;;;;;;5106168;28;20074;-61
2022/02/12 08:58:30;;;;;;;15.82;5.05;;;;;;;;;;5101037;28;20047;-62
2022/02/12 09:00:57;;;;;;;15.35;6.00;;;;;;;;;;5096728;28;20638;-62
2022/02/12 09:03:23;;;;;;;16.65;6.13;;;;;;;;;;5105622;28;20097;-62
2022/02/12 09:05:49;;;;;;;21.55;8.23;;;;;;;;;;5081965;28;20110;-61
2022/02/12 09:08:15;;;;;;;19.92;5.63;;;;;;;;;;5087517;28;20517;-62
2022/02/12 09:10:41;;;;;;;24.00;5.75;;;;;;;;;;5090276;28;20075;-61
2022/02/12 09:13:07;;;;;;;18.23;5.18;;;;;;;;;;5089213;28;20067;-61
2022/02/12 09:15:33;;;;;;;20.55;5.28;;;;;;;;;;5085501;28;20478;-61
2022/02/12 09:18:00;;;;;;;14.98;5.40;;;;;;;;;;5096946;28;20044;-62
2022/02/12 09:20:26;;;;;;;13.85;5.38;;;;;;;;;;5101435;28;20040;-61
2022/02/12 09:22:52;;;;;;;17.80;5.18;;;;;;;;;;5091591;28;20047;-61
2022/02/12 09:25:18;;;;;;;23.90;6.53;;;;;;;;;;5089989;28;20036;-61
2022/02/12 09:27:46;;;;;;;9.13;5.32;;;;;;;;;;5095907;28;20116;-61
2022/02/12 09:30:12;;;;;;;16.27;6.25;;;;;;;;;;5113922;27;20051;-61
2022/02/12 09:32:39;;;;;;;19.13;4.88;;;;;;;;;;5097697;28;20124;-66
2022/02/12 09:35:05;;;;;;;28.65;5.90;;;;;;;;;;5083777;28;20103;-62
2022/02/12 09:37:31;;;;;;;24.27;7.38;;;;;;;;;;5092555;28;20035;-62
2022/02/12 09:39:57;;;;;;;20.45;4.78;;;;;;;;;;5093770;28;20102;-61
2022/02/12 09:42:23;;;;;;;15.90;5.97;;;;;;;;;;5087577;28;20078;-63
2022/02/12 09:44:50;;;;;;;16.95;5.63;;;;;;;;;;5086347;28;20052;-62
2022/02/12 09:47:25;;;;;;;23.05;6.50;;;;;;;;;;5097095;28;20529;-62
2022/02/12 09:49:53;;;;;;;13.20;5.47;;;;;;;;;;5095398;28;20040;-63
2022/02/12 09:52:19;;;;;;;15.13;5.68;;;;;;;;;;5094770;28;20063;-63
2022/02/12 09:54:46;;;;;;;17.52;6.72;;;;;;;;;;5081229;28;20089;-64
2022/02/12 09:57:12;;;;;;;22.13;6.18;;;;;;;;;;5084801;28;20056;-63
2022/02/12 09:59:38;;;;;;;15.98;5.20;;;;;;;;;;5076396;28;20048;-63
2022/02/12 10:02:04;;;;;;;17.70;5.55;;;;;;;;;;5077695;28;20136;-62
2022/02/12 10:04:31;;;;;;;19.35;6.45;;;;;;;;;;5072734;28;20059;-62
2022/02/12 10:06:59;;;;;;;18.30;6.18;;;;;;;;;;5073109;28;20418;-62
2022/02/12 10:09:25;;;;;;;;;;;;;;;;;;5079888;28;20114;-62
2022/02/12 10:11:54;;;;;;;17.05;6.28;;;;;;;;;;5116392;27;19920;-62
2022/02/12 10:14:23;;;;;;;15.82;5.68;;;;;;;;;;5085016;28;20044;-62
2022/02/12 10:17:00;;;;;;;15.07;5.88;;;;;;;;;;5097849;28;20112;-62
2022/02/12 10:19:36;;;;;;;12.27;4.97;;;;;;;;;;5076284;28;20048;-63
2022/02/12 10:22:04;;;;;;;19.67;5.15;;;;;;;;;;5070652;28;20045;-62
2022/02/12 10:24:50;;;;;;;14.25;4.95;;;;;;;;;;5066911;28;21861;-62
2022/02/12 10:27:16;;;;;;;12.98;4.97;;;;;;;;;;5072828;28;20048;-62
2022/02/12 10:29:47;;;;;;;14.35;5.10;;;;;;;;;;5078387;28;20087;-61
2022/02/12 10:32:14;;;;;;;20.55;5.82;;;;;;;;;;5082161;28;20036;-64
2022/02/12 10:34:43;;;;;;;16.60;4.95;;;;;;;;;;5084405;28;20099;-63
2022/02/12 10:37:13;;;;;;;14.43;4.90;;;;;;;;;;5083789;28;20037;-63
2022/02/12 10:39:48;;;;;;;16.10;5.45;;;;;;;;;;5084138;28;20074;-62
2022/02/12 10:42:17;;;;;;;16.15;4.60;;;;;;;;;;5083281;28;20056;-62
2022/02/12 10:44:44;;;;;;;24.85;5.20;;;;;;;;;;5074902;28;20073;-62
2022/02/12 10:47:13;;;;;;;16.27;6.20;;;;;;;;;;5099299;28;20055;-62
2022/02/12 10:49:40;;;;;;;12.50;4.18;;;;;;;;;;5076752;28;20327;-62
2022/02/12 10:52:06;;;;;;;11.55;4.97;;;;;;;;;;5079432;28;20039;-62
2022/02/12 10:54:45;;;;;;;12.18;4.45;;;;;;;;;;5079905;28;20506;-62
2022/02/12 10:57:12;;;;;;;16.35;4.15;;;;;;;;;;5073276;28;20043;-62
2022/02/12 10:59:42;;;;;;;17.87;4.67;;;;;;;;;;5081538;28;20048;-63
2022/02/12 11:02:20;;;;;;;17.73;4.70;;;;;;;;;;5086912;28;20052;-63
2022/02/12 11:04:52;;;;;;;12.90;4.38;;;;;;;;;;5089521;28;20043;-63
2022/02/12 11:07:18;;;;;;;14.45;4.32;;;;;;;;;;5089053;28;20036;-63
2022/02/12 11:09:45;;;;;;;14.98;4.03;;;;;;;;;;5089602;28;20075;-63
2022/02/12 11:12:12;;;;;;;18.20;4.43;;;;;;;;;;5078375;28;20059;-63
2022/02/12 11:14:38;;;;;;;12.67;4.17;;;;;;;;;;5088320;28;20519;-64
2022/02/12 11:17:07;;;;;;;18.40;3.92;;;;;;;;;;5074802;28;20064;-63
2022/02/12 11:19:34;;;;;;;16.38;4.43;;;;;;;;;;5082436;28;20131;-63
2022/02/12 11:22:01;;;;;;;7.05;3.03;;;;;;;;;;5076411;28;20048;-63
2022/02/12 11:24:35;;;;;;;15.10;4.60;;;;;;;;;;5081792;28;20040;-63
2022/02/12 11:27:14;;;;;;;12.25;3.33;;;;;;;;;;5079710;28;20059;-63
2022/02/12 11:29:41;;;;;;;12.80;3.58;;;;;;;;;;5079772;28;20040;-63
2022/02/12 11:32:09;;;;;;;14.00;3.22;;;;;;;;;;5081149;28;20044;-63
2022/02/12 11:34:36;;;;;;;12.05;3.75;;;;;;;;;;5085302;28;20076;-63
2022/02/12 11:37:12;;;;;;;13.05;3.92;;;;;;;;;;5084359;28;20068;-63
2022/02/12 11:39:39;;;;;;;7.65;3.35;;;;;;;;;;5094478;28;20044;-63
2022/02/12 11:42:05;;;;;;;16.10;4.13;;;;;;;;;;5082753;28;20108;-64
2022/02/12 11:44:41;;;;;;;24.67;4.28;;;;;;;;;;5082470;28;20040;-64
2022/02/12 11:47:08;;;;;;;10.73;4.22;;;;;;;;;;5093709;28;20499;-64
2022/02/12 11:49:34;;;;;;;7.35;3.20;;;;;;;;;;5089389;28;20101;-63
2022/02/12 11:52:08;;;;;;;12.50;3.33;;;;;;;;;;5077373;28;20048;-63
2022/02/12 11:54:47;;;;;;;14.10;3.85;;;;;;;;;;5079894;28;20155;-64
2022/02/12 11:57:18;;;;;;;10.60;3.53;;;;;;;;;;5077377;28;20045;-64
2022/02/12 11:59:44;;;;;;;11.05;3.88;;;;;;;;;;5085003;28;20075;-64
2022/02/12 12:02:30;;;;;;;10.57;3.45;;;;;;;;;;5082722;28;20040;-65
2022/02/12 12:05:11;;;;;;;11.68;3.42;;;;;;;;;;5093912;28;20399;-63
2022/02/12 12:07:57;;;;;;;7.13;3.22;;;;;;;;;;5092841;28;20099;-64
2022/02/12 12:10:23;;;;;;;7.10;3.22;;;;;;;;;;5082133;28;20040;-65
2022/02/12 12:12:49;;;;;;;11.70;4.07;;;;;;;;;;5088796;28;20108;-65
2022/02/12 12:15:16;;;;;;;11.40;3.63;;;;;;;;;;5087824;28;20048;-64
2022/02/12 12:17:42;;;;;;;8.10;3.00;;;;;;;;;;5091727;28;20053;-63
2022/02/12 12:20:10;;;;;;;9.65;3.00;;;;;;;;;;5091660;28;20492;-65
2022/02/12 12:22:36;;;;;;;14.52;2.92;;;;;;;;;;5087281;28;20052;-65
2022/02/12 12:25:03;;;;;;;9.93;3.35;;;;;;;;;;5092058;28;20066;-64
2022/02/12 12:27:33;;;;;;;14.05;3.38;;;;;;;;;;5089958;28;20055;-65
2022/02/12 12:32:57;;;;;;;13.63;3.47;;;;;;;;;;5077718;28;20068;-64
2022/02/12 12:35:23;;;;;;;6.68;2.97;;;;;;;;;;5081243;28;20052;-65
2022/02/12 12:37:50;;;;;;;8.50;3.05;;;;;;;;;;5079936;28;20043;-65
2022/02/12 12:40:18;;;;;;;12.65;3.85;;;;;;;;;;5082757;28;20056;-64
2022/02/12 12:42:44;;;;;;;11.32;3.53;;;;;;;;;;5084428;28;20071;-65
2022/02/12 12:45:14;;;;;;;14.65;3.42;;;;;;;;;;5074049;28;20052;-65
2022/02/12 12:47:50;;;;;;;12.57;3.58;;;;;;;;;;5077628;28;20046;-64
2022/02/12 12:50:17;;;;;;;11.48;3.15;;;;;;;;;;5086100;28;20045;-65
2022/02/12 12:52:43;;;;;;;8.88;3.15;;;;;;;;;;5071297;28;20068;-65
2022/02/12 12:55:13;;;;;;;17.13;3.55;;;;;;;;;;5074363;28;20067;-65
2022/02/12 12:57:41;;;;;;;9.13;3.55;;;;;;;;;;5079946;28;20401;-65
2022/02/12 13:00:08;;;;;;;13.20;3.97;;;;;;;;;;5083563;28;20056;-65
2022/02/12 13:02:34;;;;;;;11.50;4.47;;;;;;;;;;5086358;28;20102;-63
2022/02/12 13:05:02;;;;;;;13.80;3.33;;;;;;;;;;5084848;28;20055;-64
2022/02/12 13:07:32;;;;;;;13.00;3.20;;;;;;;;;;5085687;28;20563;-64
2022/02/12 13:10:00;;;;;;;14.18;3.28;;;;;;;;;;5086261;28;20033;-64
2022/02/12 13:12:33;;;;;;;11.82;3.85;;;;;;;;;;5075943;28;20047;-64
2022/02/12 13:15:07;;;;;;;17.83;3.53;;;;;;;;;;5085953;28;20044;-64
2022/02/12 13:17:38;;;;;;;13.35;3.78;;;;;;;;;;5084764;28;20063;-64
2022/02/12 13:20:05;;;;;;;15.15;4.78;;;;;;;;;;5084862;28;20043;-64
2022/02/12 13:22:33;;;;;;;10.68;3.83;;;;;;;;;;5085148;28;20040;-64
2022/02/12 13:25:00;;;;;;;11.90;3.88;;;;;;;;;;5086043;28;20124;-64
2022/02/12 13:27:27;;;;;;;12.68;3.55;;;;;;;;;;5085957;28;20052;-64
2022/02/12 13:30:07;;;;;;;11.07;3.78;;;;;;;;;;5087135;28;20385;-64
2022/02/12 13:32:37;;;;;;;15.48;3.83;;;;;;;;;;5074126;28;20047;-64
2022/02/12 13:35:07;;;;;;;11.07;3.70;;;;;;;;;;5084519;28;20083;-64
2022/02/12 13:37:35;;;;;;;14.23;3.78;;;;;;;;;;5077520;28;20505;-64
2022/02/12 13:40:03;;;;;;;12.70;4.47;;;;;;;;;;5085442;28;20045;-64
2022/02/12 13:42:29;;;;;;;13.95;4.13;;;;;;;;;;5101490;28;20061;-64
2022/02/12 13:45:02;;;;;;;10.43;3.03;;;;;;;;;;5084175;28;20079;-65
2022/02/12 13:47:28;;;;;;;11.50;4.38;;;;;;;;;;5086425;28;20040;-65
2022/02/12 13:49:54;;;;;;;9.43;3.50;;;;;;;;;;5086224;28;20575;-65
2022/02/12 13:52:21;;;;;;;12.77;3.70;;;;;;;;;;5084592;28;20060;-65
2022/02/12 13:55:00;;;;;;;6.22;3.00;;;;;;;;;;5077475;28;20057;-65
2022/02/12 13:57:26;;;;;;;11.02;3.67;;;;;;;;;;5115725;27;20658;-65
2022/02/12 13:59:52;;;;;;;12.93;3.95;;;;;;;;;;5084733;28;20048;-64
2022/02/12 14:02:18;;;;;;;11.95;3.88;;;;;;;;;;5083764;28;20296;-64
2022/02/12 14:04:45;;;;;;;12.75;3.40;;;;;;;;;;5084073;28;20075;-64
2022/02/12 14:07:11;;;;;;;11.52;3.92;;;;;;;;;;5090225;28;20041;-64
2022/02/12 14:09:37;;;;;;;8.63;3.55;;;;;;;;;;5084778;28;20043;-64
2022/02/12 14:12:03;;;;;;;12.85;3.60;;;;;;;;;;5084998;28;20036;-64
2022/02/12 14:14:29;;;;;;;10.75;3.72;;;;;;;;;;5085412;28;20060;-64
2022/02/12 14:16:55;;;;;;;12.27;3.67;;;;;;;;;;5086617;28;20048;-63
2022/02/12 14:19:21;;;;;;;13.13;3.75;;;;;;;;;;5084110;28;20040;-64
2022/02/12 14:21:47;;;;;;;14.32;3.53;;;;;;;;;;5083639;28;20040;-64
2022/02/12 14:24:14;;;;;;;13.07;3.53;;;;;;;;;;5084729;28;20036;-64
2022/02/12 14:26:41;;;;;;;15.38;4.82;;;;;;;;;;5083034;28;20048;-64
2022/02/12 14:29:07;;;;;;;12.30;3.60;;;;;;;;;;5084771;28;20048;-64
2022/02/12 14:31:34;;;;;;;11.60;4.78;;;;;;;;;;5083150;28;20048;-63
2022/02/12 14:34:00;;;;;;;14.02;4.97;;;;;;;;;;5084410;28;20135;-64
2022/02/12 14:36:26;;;;;;;8.48;2.80;;;;;;;;;;5077998;28;20044;-64
2022/02/12 14:38:53;;;;;;;13.23;3.60;;;;;;;;;;5083255;28;20563;-64
2022/02/12 14:41:19;;;;;;;10.05;3.22;;;;;;;;;;5087499;28;20076;-65
2022/02/12 14:43:46;;;;;;;17.40;4.55;;;;;;;;;;5084566;28;20056;-64